sensor_id;sensor_type;location;lat;lon;timestamp;P1;durP1;ratioP1;P2;durP2;ratioP2
58306;SDS011;44116;50.884;4.768;2022-07-24T00:01:58;20.0;;;14.5;;
58306;SDS011;44116;50.884;4.768;2022-07-24T00:03:58;17.7;;;15.2;;
58306;SDS011;44116;50.884;4.768;2022-07-24T00:05:58;18.4;;;15.6;;
58306;SDS011;44116;50.884;4.768;2022-07-24T00:07:58;17.9;;;15.0;;
58306;SDS011;44116;50.884;4.768;2022-07-24T00:09:58;22.8;;;16.0;;
58306;SDS011;44116;50.884;4.768;2022-07-24T00:11:58;18.8;;;16.6;;
58306;SDS011;44116;50.884;4.768;2022-07-24T00:13:58;19.6;;;16.5;;
58306;SDS011;44116;50.884;4.768;2022-07-24T00:15:58;18.2;;;16.2;;
58306;SDS011;44116;50.884;4.768;2022-07-24T00:17:58;18.0;;;15.6;;
58306;SDS011;44116;50.884;4.768;2022-07-24T00:19:58;20.9;;;17.2;;
58306;SDS011;44116;50.884;4.768;2022-07-24T00:21:58;18.5;;;16.0;;
58306;SDS011;44116;50.884;4.768;2022-07-24T00:23:58;23.3;;;18.3;;
58306;SDS011;44116;50.884;4.768;2022-07-24T00:25:59;21.1;;;17.6;;
58306;SDS011;44116;50.884;4.768;2022-07-24T00:27:58;26.0;;;20.5;;
58306;SDS011;44116;50.884;4.768;2022-07-24T00:29:58;26.9;;;21.6;;
58306;SDS011;44116;50.884;4.768;2022-07-24T00:31:58;28.3;;;22.9;;
58306;SDS011;44116;50.884;4.768;2022-07-24T00:33:58;26.6;;;21.6;;
58306;SDS011;44116;50.884;4.768;2022-07-24T00:35:57;28.7;;;22.7;;
58306;SDS011;44116;50.884;4.768;2022-07-24T00:37:58;31.0;;;25.3;;
58306;SDS011;44116;50.884;4.768;2022-07-24T00:39:57;29.1;;;23.4;;
58306;SDS011;44116;50.884;4.768;2022-07-24T00:41:57;32.3;;;25.0;;
58306;SDS011;44116;50.884;4.768;2022-07-24T00:43:59;34.4;;;26.0;;
58306;SDS011;44116;50.884;4.768;2022-07-24T00:45:57;35.5;;;27.0;;
58306;SDS011;44116;50.884;4.768;2022-07-24T00:47:57;36.1;;;27.9;;
58306;SDS011;44116;50.884;4.768;2022-07-24T00:49:57;36.2;;;27.5;;
58306;SDS011;44116;50.884;4.768;2022-07-24T00:51:57;35.4;;;26.2;;
58306;SDS011;44116;50.884;4.768;2022-07-24T00:53:57;34.7;;;26.9;;
58306;SDS011;44116;50.884;4.768;2022-07-24T00:55:57;33.2;;;25.9;;
58306;SDS011;44116;50.884;4.768;2022-07-24T00:57:57;31.5;;;24.7;;
58306;SDS011;44116;50.884;4.768;2022-07-24T00:59:57;33.9;;;24.8;;
58306;SDS011;44116;50.884;4.768;2022-07-24T01:01:57;34.8;;;25.4;;
58306;SDS011;44116;50.884;4.768;2022-07-24T01:03:58;32.2;;;22.9;;
58306;SDS011;44116;50.884;4.768;2022-07-24T01:05:58;31.1;;;23.9;;
58306;SDS011;44116;50.884;4.768;2022-07-24T01:07:57;32.0;;;24.7;;
58306;SDS011;44116;50.884;4.768;2022-07-24T01:09:57;31.2;;;24.4;;
58306;SDS011;44116;50.884;4.768;2022-07-24T01:11:57;32.7;;;23.5;;
58306;SDS011;44116;50.884;4.768;2022-07-24T01:13:58;35.6;;;27.3;;
58306;SDS011;44116;50.884;4.768;2022-07-24T01:15:57;35.1;;;26.3;;
58306;SDS011;44116;50.884;4.768;2022-07-24T01:17:57;32.2;;;26.0;;
58306;SDS011;44116;50.884;4.768;2022-07-24T01:19:57;32.3;;;25.3;;
58306;SDS011;44116;50.884;4.768;2022-07-24T01:21:57;33.0;;;25.2;;
58306;SDS011;44116;50.884;4.768;2022-07-24T01:23:56;34.4;;;26.0;;
58306;SDS011;44116;50.884;4.768;2022-07-24T01:25:58;33.6;;;26.7;;
58306;SDS011;44116;50.884;4.768;2022-07-24T01:27:56;35.7;;;26.4;;
58306;SDS011;44116;50.884;4.768;2022-07-24T01:29:57;34.1;;;25.2;;
58306;SDS011;44116;50.884;4.768;2022-07-24T01:31:56;31.7;;;25.8;;
58306;SDS011;44116;50.884;4.768;2022-07-24T01:33:56;30.3;;;24.7;;
58306;SDS011;44116;50.884;4.768;2022-07-24T01:35:56;34.0;;;25.8;;
58306;SDS011;44116;50.884;4.768;2022-07-24T01:37:56;32.4;;;24.8;;
58306;SDS011;44116;50.884;4.768;2022-07-24T01:39:56;37.0;;;26.5;;
58306;SDS011;44116;50.884;4.768;2022-07-24T01:41:56;32.8;;;25.5;;
58306;SDS011;44116;50.884;4.768;2022-07-24T01:43:56;33.9;;;25.1;;
58306;SDS011;44116;50.884;4.768;2022-07-24T01:45:56;34.0;;;25.3;;
58306;SDS011;44116;50.884;4.768;2022-07-24T01:47:56;32.1;;;25.6;;
58306;SDS011;44116;50.884;4.768;2022-07-24T01:49:56;31.2;;;24.8;;
58306;SDS011;44116;50.884;4.768;2022-07-24T01:51:56;30.2;;;23.8;;
58306;SDS011;44116;50.884;4.768;2022-07-24T01:53:56;29.6;;;22.6;;
58306;SDS011;44116;50.884;4.768;2022-07-24T01:55:56;29.2;;;23.2;;
58306;SDS011;44116;50.884;4.768;2022-07-24T01:57:56;29.0;;;22.8;;
58306;SDS011;44116;50.884;4.768;2022-07-24T01:59:56;30.0;;;23.1;;
58306;SDS011;44116;50.884;4.768;2022-07-24T02:03:56;30.8;;;22.6;;
58306;SDS011;44116;50.884;4.768;2022-07-24T02:05:55;29.3;;;23.5;;
58306;SDS011;44116;50.884;4.768;2022-07-24T02:07:57;29.8;;;23.4;;
58306;SDS011;44116;50.884;4.768;2022-07-24T02:09:55;30.8;;;23.6;;
58306;SDS011;44116;50.884;4.768;2022-07-24T02:11:55;32.5;;;24.9;;
58306;SDS011;44116;50.884;4.768;2022-07-24T02:13:55;33.4;;;25.7;;
58306;SDS011;44116;50.884;4.768;2022-07-24T02:15:55;31.8;;;24.7;;
58306;SDS011;44116;50.884;4.768;2022-07-24T02:17:57;32.1;;;24.4;;
58306;SDS011;44116;50.884;4.768;2022-07-24T02:19:55;32.1;;;25.7;;
58306;SDS011;44116;50.884;4.768;2022-07-24T02:21:55;32.9;;;24.9;;
58306;SDS011;44116;50.884;4.768;2022-07-24T02:23:55;32.1;;;23.7;;
58306;SDS011;44116;50.884;4.768;2022-07-24T02:25:55;27.8;;;22.8;;
58306;SDS011;44116;50.884;4.768;2022-07-24T02:27:55;29.8;;;24.6;;
58306;SDS011;44116;50.884;4.768;2022-07-24T02:29:55;27.6;;;23.1;;
58306;SDS011;44116;50.884;4.768;2022-07-24T02:31:55;27.9;;;23.4;;
58306;SDS011;44116;50.884;4.768;2022-07-24T02:33:55;29.9;;;23.6;;
58306;SDS011;44116;50.884;4.768;2022-07-24T02:35:55;29.5;;;23.3;;
58306;SDS011;44116;50.884;4.768;2022-07-24T02:37:54;31.5;;;23.7;;
58306;SDS011;44116;50.884;4.768;2022-07-24T02:39:54;29.2;;;24.1;;
58306;SDS011;44116;50.884;4.768;2022-07-24T02:41:54;29.6;;;24.5;;
58306;SDS011;44116;50.884;4.768;2022-07-24T02:43:54;27.1;;;23.7;;
58306;SDS011;44116;50.884;4.768;2022-07-24T02:45:55;28.7;;;23.4;;
58306;SDS011;44116;50.884;4.768;2022-07-24T02:47:55;30.4;;;23.5;;
58306;SDS011;44116;50.884;4.768;2022-07-24T02:49:54;30.6;;;23.4;;
58306;SDS011;44116;50.884;4.768;2022-07-24T02:51:54;29.5;;;23.3;;
58306;SDS011;44116;50.884;4.768;2022-07-24T02:53:54;29.8;;;24.3;;
58306;SDS011;44116;50.884;4.768;2022-07-24T02:55:54;30.0;;;23.6;;
58306;SDS011;44116;50.884;4.768;2022-07-24T02:57:54;29.4;;;24.4;;
58306;SDS011;44116;50.884;4.768;2022-07-24T03:01:54;30.7;;;25.2;;
58306;SDS011;44116;50.884;4.768;2022-07-24T03:03:54;29.9;;;23.7;;
58306;SDS011;44116;50.884;4.768;2022-07-24T03:05:54;27.9;;;23.3;;
58306;SDS011;44116;50.884;4.768;2022-07-24T03:07:53;32.5;;;22.8;;
58306;SDS011;44116;50.884;4.768;2022-07-24T03:09:53;27.3;;;22.9;;
58306;SDS011;44116;50.884;4.768;2022-07-24T03:11:53;30.0;;;24.4;;
58306;SDS011;44116;50.884;4.768;2022-07-24T03:13:53;30.1;;;23.7;;
58306;SDS011;44116;50.884;4.768;2022-07-24T03:15:53;27.7;;;23.1;;
58306;SDS011;44116;50.884;4.768;2022-07-24T03:17:55;27.6;;;22.9;;
58306;SDS011;44116;50.884;4.768;2022-07-24T03:21:53;28.2;;;23.3;;
58306;SDS011;44116;50.884;4.768;2022-07-24T03:23:53;27.0;;;22.9;;
58306;SDS011;44116;50.884;4.768;2022-07-24T03:25:53;28.5;;;22.3;;
58306;SDS011;44116;50.884;4.768;2022-07-24T03:27:53;26.6;;;21.8;;
58306;SDS011;44116;50.884;4.768;2022-07-24T03:29:53;26.0;;;21.5;;
58306;SDS011;44116;50.884;4.768;2022-07-24T03:31:53;27.6;;;21.9;;
58306;SDS011;44116;50.884;4.768;2022-07-24T03:33:52;27.1;;;22.0;;
58306;SDS011;44116;50.884;4.768;2022-07-24T03:35:52;27.2;;;22.2;;
58306;SDS011;44116;50.884;4.768;2022-07-24T03:37:52;25.7;;;21.8;;
58306;SDS011;44116;50.884;4.768;2022-07-24T03:39:53;26.9;;;22.9;;
58306;SDS011;44116;50.884;4.768;2022-07-24T03:41:52;29.7;;;23.4;;
58306;SDS011;44116;50.884;4.768;2022-07-24T03:43:52;28.4;;;22.5;;
58306;SDS011;44116;50.884;4.768;2022-07-24T03:45:52;28.8;;;22.9;;
58306;SDS011;44116;50.884;4.768;2022-07-24T03:47:52;28.9;;;23.8;;
58306;SDS011;44116;50.884;4.768;2022-07-24T03:49:52;27.8;;;22.7;;
58306;SDS011;44116;50.884;4.768;2022-07-24T03:51:51;28.5;;;23.3;;
58306;SDS011;44116;50.884;4.768;2022-07-24T03:53:52;28.3;;;23.5;;
58306;SDS011;44116;50.884;4.768;2022-07-24T03:55:51;28.5;;;22.8;;
58306;SDS011;44116;50.884;4.768;2022-07-24T03:57:51;31.9;;;23.1;;
58306;SDS011;44116;50.884;4.768;2022-07-24T03:59:51;27.6;;;23.2;;
58306;SDS011;44116;50.884;4.768;2022-07-24T04:01:51;30.6;;;23.9;;
58306;SDS011;44116;50.884;4.768;2022-07-24T04:03:51;29.5;;;23.2;;
58306;SDS011;44116;50.884;4.768;2022-07-24T04:05:51;31.4;;;24.3;;
58306;SDS011;44116;50.884;4.768;2022-07-24T04:07:51;31.0;;;25.2;;
58306;SDS011;44116;50.884;4.768;2022-07-24T04:09:51;29.1;;;23.4;;
58306;SDS011;44116;50.884;4.768;2022-07-24T04:11:51;27.6;;;23.5;;
58306;SDS011;44116;50.884;4.768;2022-07-24T04:13:51;30.7;;;24.3;;
58306;SDS011;44116;50.884;4.768;2022-07-24T04:15:51;31.1;;;24.8;;
58306;SDS011;44116;50.884;4.768;2022-07-24T04:17:50;30.9;;;24.1;;
58306;SDS011;44116;50.884;4.768;2022-07-24T04:19:50;30.5;;;23.3;;
58306;SDS011;44116;50.884;4.768;2022-07-24T04:21:50;28.3;;;23.0;;
58306;SDS011;44116;50.884;4.768;2022-07-24T04:23:50;28.7;;;22.7;;
58306;SDS011;44116;50.884;4.768;2022-07-24T04:25:50;28.8;;;23.0;;
58306;SDS011;44116;50.884;4.768;2022-07-24T04:27:50;27.5;;;21.8;;
58306;SDS011;44116;50.884;4.768;2022-07-24T04:29:50;25.1;;;21.0;;
58306;SDS011;44116;50.884;4.768;2022-07-24T04:31:50;28.7;;;22.2;;
58306;SDS011;44116;50.884;4.768;2022-07-24T04:33:49;28.6;;;22.7;;
58306;SDS011;44116;50.884;4.768;2022-07-24T04:35:49;30.3;;;23.2;;
58306;SDS011;44116;50.884;4.768;2022-07-24T04:37:50;26.7;;;21.0;;
58306;SDS011;44116;50.884;4.768;2022-07-24T04:39:49;26.0;;;21.1;;
58306;SDS011;44116;50.884;4.768;2022-07-24T04:41:49;25.8;;;21.9;;
58306;SDS011;44116;50.884;4.768;2022-07-24T04:43:49;26.5;;;21.2;;
58306;SDS011;44116;50.884;4.768;2022-07-24T04:45:49;25.2;;;20.7;;
58306;SDS011;44116;50.884;4.768;2022-07-24T04:47:49;26.9;;;22.2;;
58306;SDS011;44116;50.884;4.768;2022-07-24T04:49:49;26.6;;;21.9;;
58306;SDS011;44116;50.884;4.768;2022-07-24T04:51:49;26.7;;;20.5;;
58306;SDS011;44116;50.884;4.768;2022-07-24T04:53:48;27.0;;;21.6;;
58306;SDS011;44116;50.884;4.768;2022-07-24T04:55:49;26.0;;;20.9;;
58306;SDS011;44116;50.884;4.768;2022-07-24T04:57:48;26.4;;;20.6;;
58306;SDS011;44116;50.884;4.768;2022-07-24T04:59:48;28.0;;;20.9;;
58306;SDS011;44116;50.884;4.768;2022-07-24T05:01:48;27.3;;;22.6;;
58306;SDS011;44116;50.884;4.768;2022-07-24T05:03:48;27.2;;;21.4;;
58306;SDS011;44116;50.884;4.768;2022-07-24T05:05:48;25.4;;;21.1;;
58306;SDS011;44116;50.884;4.768;2022-07-24T05:07:48;27.5;;;21.6;;
58306;SDS011;44116;50.884;4.768;2022-07-24T05:09:48;27.0;;;22.1;;
58306;SDS011;44116;50.884;4.768;2022-07-24T05:11:48;25.3;;;21.6;;
58306;SDS011;44116;50.884;4.768;2022-07-24T05:13:48;27.6;;;22.2;;
58306;SDS011;44116;50.884;4.768;2022-07-24T05:15:48;26.9;;;21.8;;
58306;SDS011;44116;50.884;4.768;2022-07-24T05:17:47;27.3;;;22.0;;
58306;SDS011;44116;50.884;4.768;2022-07-24T05:19:47;29.6;;;23.2;;
58306;SDS011;44116;50.884;4.768;2022-07-24T05:21:47;26.8;;;21.5;;
58306;SDS011;44116;50.884;4.768;2022-07-24T05:23:47;27.4;;;21.9;;
58306;SDS011;44116;50.884;4.768;2022-07-24T05:25:47;28.3;;;21.5;;
58306;SDS011;44116;50.884;4.768;2022-07-24T05:29:47;25.8;;;21.6;;
58306;SDS011;44116;50.884;4.768;2022-07-24T05:31:47;29.7;;;23.2;;
58306;SDS011;44116;50.884;4.768;2022-07-24T05:33:47;28.8;;;21.7;;
58306;SDS011;44116;50.884;4.768;2022-07-24T05:39:47;27.9;;;22.2;;
58306;SDS011;44116;50.884;4.768;2022-07-24T05:41:47;25.2;;;21.8;;
58306;SDS011;44116;50.884;4.768;2022-07-24T05:43:46;24.7;;;20.7;;
58306;SDS011;44116;50.884;4.768;2022-07-24T05:45:46;28.5;;;20.9;;
58306;SDS011;44116;50.884;4.768;2022-07-24T05:47:46;24.8;;;19.8;;
58306;SDS011;44116;50.884;4.768;2022-07-24T05:49:46;26.9;;;20.3;;
58306;SDS011;44116;50.884;4.768;2022-07-24T05:51:46;22.0;;;18.8;;
58306;SDS011;44116;50.884;4.768;2022-07-24T05:53:46;26.7;;;20.4;;
58306;SDS011;44116;50.884;4.768;2022-07-24T05:55:46;25.1;;;19.2;;
58306;SDS011;44116;50.884;4.768;2022-07-24T05:57:46;23.2;;;18.6;;
58306;SDS011;44116;50.884;4.768;2022-07-24T05:59:46;23.0;;;18.3;;
58306;SDS011;44116;50.884;4.768;2022-07-24T06:01:46;22.5;;;17.9;;
58306;SDS011;44116;50.884;4.768;2022-07-24T06:03:46;23.5;;;18.0;;
58306;SDS011;44116;50.884;4.768;2022-07-24T06:05:46;19.0;;;16.2;;
58306;SDS011;44116;50.884;4.768;2022-07-24T06:07:46;24.2;;;17.5;;
58306;SDS011;44116;50.884;4.768;2022-07-24T06:09:46;20.1;;;15.7;;
58306;SDS011;44116;50.884;4.768;2022-07-24T06:11:46;19.7;;;14.6;;
58306;SDS011;44116;50.884;4.768;2022-07-24T06:13:46;20.8;;;14.0;;
58306;SDS011;44116;50.884;4.768;2022-07-24T06:15:46;19.9;;;14.1;;
58306;SDS011;44116;50.884;4.768;2022-07-24T06:17:46;18.7;;;13.8;;
58306;SDS011;44116;50.884;4.768;2022-07-24T06:19:46;19.1;;;14.2;;
58306;SDS011;44116;50.884;4.768;2022-07-24T06:21:46;16.7;;;13.1;;
58306;SDS011;44116;50.884;4.768;2022-07-24T06:23:46;17.8;;;11.6;;
58306;SDS011;44116;50.884;4.768;2022-07-24T06:25:46;21.0;;;11.8;;
58306;SDS011;44116;50.884;4.768;2022-07-24T06:27:48;15.7;;;11.7;;
58306;SDS011;44116;50.884;4.768;2022-07-24T06:29:46;15.0;;;11.2;;
58306;SDS011;44116;50.884;4.768;2022-07-24T06:31:45;16.0;;;12.4;;
58306;SDS011;44116;50.884;4.768;2022-07-24T06:33:45;15.4;;;11.7;;
58306;SDS011;44116;50.884;4.768;2022-07-24T06:35:45;16.0;;;11.3;;
58306;SDS011;44116;50.884;4.768;2022-07-24T06:37:46;14.3;;;10.7;;
58306;SDS011;44116;50.884;4.768;2022-07-24T06:39:45;16.4;;;10.8;;
58306;SDS011;44116;50.884;4.768;2022-07-24T06:41:45;14.8;;;11.0;;
58306;SDS011;44116;50.884;4.768;2022-07-24T06:43:45;18.1;;;11.2;;
58306;SDS011;44116;50.884;4.768;2022-07-24T06:45:45;15.1;;;11.0;;
58306;SDS011;44116;50.884;4.768;2022-07-24T06:47:45;15.6;;;10.4;;
58306;SDS011;44116;50.884;4.768;2022-07-24T06:49:45;14.5;;;10.1;;
58306;SDS011;44116;50.884;4.768;2022-07-24T06:51:45;15.6;;;10.9;;
58306;SDS011;44116;50.884;4.768;2022-07-24T06:55:45;20.7;;;11.8;;
58306;SDS011;44116;50.884;4.768;2022-07-24T06:57:45;16.6;;;10.9;;
58306;SDS011;44116;50.884;4.768;2022-07-24T06:59:45;17.3;;;11.5;;
58306;SDS011;44116;50.884;4.768;2022-07-24T07:01:45;18.4;;;11.3;;
58306;SDS011;44116;50.884;4.768;2022-07-24T07:03:45;18.1;;;10.9;;
58306;SDS011;44116;50.884;4.768;2022-07-24T07:05:45;18.3;;;11.0;;
58306;SDS011;44116;50.884;4.768;2022-07-24T07:07:45;16.9;;;10.9;;
58306;SDS011;44116;50.884;4.768;2022-07-24T07:09:45;17.6;;;11.2;;
58306;SDS011;44116;50.884;4.768;2022-07-24T07:11:45;16.4;;;10.7;;
58306;SDS011;44116;50.884;4.768;2022-07-24T07:13:45;18.3;;;11.6;;
58306;SDS011;44116;50.884;4.768;2022-07-24T07:15:45;15.3;;;10.4;;
58306;SDS011;44116;50.884;4.768;2022-07-24T07:17:45;15.4;;;10.1;;
58306;SDS011;44116;50.884;4.768;2022-07-24T07:19:45;16.0;;;9.9;;
58306;SDS011;44116;50.884;4.768;2022-07-24T07:21:45;14.8;;;10.1;;
58306;SDS011;44116;50.884;4.768;2022-07-24T07:23:45;13.3;;;9.1;;
58306;SDS011;44116;50.884;4.768;2022-07-24T07:25:45;12.8;;;8.8;;
58306;SDS011;44116;50.884;4.768;2022-07-24T07:27:45;13.0;;;8.7;;
58306;SDS011;44116;50.884;4.768;2022-07-24T07:29:45;15.1;;;9.4;;
58306;SDS011;44116;50.884;4.768;2022-07-24T07:31:45;13.1;;;9.0;;
58306;SDS011;44116;50.884;4.768;2022-07-24T07:33:45;15.2;;;8.2;;
58306;SDS011;44116;50.884;4.768;2022-07-24T07:35:45;13.1;;;9.0;;
58306;SDS011;44116;50.884;4.768;2022-07-24T07:37:45;11.6;;;7.2;;
58306;SDS011;44116;50.884;4.768;2022-07-24T07:39:45;10.2;;;7.5;;
58306;SDS011;44116;50.884;4.768;2022-07-24T07:41:45;11.6;;;7.8;;
58306;SDS011;44116;50.884;4.768;2022-07-24T07:43:45;10.2;;;7.5;;
58306;SDS011;44116;50.884;4.768;2022-07-24T07:45:45;10.2;;;6.3;;
58306;SDS011;44116;50.884;4.768;2022-07-24T07:47:45;8.3;;;6.5;;
58306;SDS011;44116;50.884;4.768;2022-07-24T07:49:45;8.0;;;5.4;;
58306;SDS011;44116;50.884;4.768;2022-07-24T07:51:45;7.6;;;5.2;;
58306;SDS011;44116;50.884;4.768;2022-07-24T07:53:45;7.7;;;5.4;;
58306;SDS011;44116;50.884;4.768;2022-07-24T07:55:45;8.5;;;5.7;;
58306;SDS011;44116;50.884;4.768;2022-07-24T07:57:45;7.7;;;5.4;;
58306;SDS011;44116;50.884;4.768;2022-07-24T07:59:45;8.5;;;5.0;;
58306;SDS011;44116;50.884;4.768;2022-07-24T08:01:45;8.3;;;4.9;;
58306;SDS011;44116;50.884;4.768;2022-07-24T08:03:45;6.5;;;4.7;;
58306;SDS011;44116;50.884;4.768;2022-07-24T08:05:46;7.7;;;4.6;;
58306;SDS011;44116;50.884;4.768;2022-07-24T08:07:46;7.1;;;5.2;;
58306;SDS011;44116;50.884;4.768;2022-07-24T08:09:45;8.1;;;4.7;;
58306;SDS011;44116;50.884;4.768;2022-07-24T08:11:45;7.4;;;4.6;;
58306;SDS011;44116;50.884;4.768;2022-07-24T08:13:46;7.3;;;4.8;;
58306;SDS011;44116;50.884;4.768;2022-07-24T08:15:46;7.3;;;4.5;;
58306;SDS011;44116;50.884;4.768;2022-07-24T08:17:50;7.2;;;4.2;;
58306;SDS011;44116;50.884;4.768;2022-07-24T08:19:46;6.7;;;3.8;;
58306;SDS011;44116;50.884;4.768;2022-07-24T08:21:46;7.1;;;4.0;;
58306;SDS011;44116;50.884;4.768;2022-07-24T08:25:46;8.1;;;4.1;;
58306;SDS011;44116;50.884;4.768;2022-07-24T08:29:46;7.8;;;4.4;;
58306;SDS011;44116;50.884;4.768;2022-07-24T08:35:46;5.9;;;3.7;;
58306;SDS011;44116;50.884;4.768;2022-07-24T08:37:46;5.7;;;3.8;;
58306;SDS011;44116;50.884;4.768;2022-07-24T08:39:46;6.4;;;3.9;;
58306;SDS011;44116;50.884;4.768;2022-07-24T08:41:48;6.3;;;4.1;;
58306;SDS011;44116;50.884;4.768;2022-07-24T08:43:46;6.0;;;3.7;;
58306;SDS011;44116;50.884;4.768;2022-07-24T08:47:49;6.3;;;3.5;;
58306;SDS011;44116;50.884;4.768;2022-07-24T08:49:48;5.3;;;3.6;;
58306;SDS011;44116;50.884;4.768;2022-07-24T08:51:48;5.4;;;3.4;;
58306;SDS011;44116;50.884;4.768;2022-07-24T08:53:47;6.5;;;3.6;;
58306;SDS011;44116;50.884;4.768;2022-07-24T08:55:47;5.6;;;3.5;;
58306;SDS011;44116;50.884;4.768;2022-07-24T08:59:47;6.8;;;4.2;;
58306;SDS011;44116;50.884;4.768;2022-07-24T09:01:48;4.7;;;3.3;;
58306;SDS011;44116;50.884;4.768;2022-07-24T09:03:47;4.8;;;3.5;;
58306;SDS011;44116;50.884;4.768;2022-07-24T09:07:47;4.8;;;3.3;;
58306;SDS011;44116;50.884;4.768;2022-07-24T09:09:57;5.8;;;3.4;;
58306;SDS011;44116;50.884;4.768;2022-07-24T09:11:47;4.9;;;3.1;;
58306;SDS011;44116;50.884;4.768;2022-07-24T09:13:51;7.0;;;3.6;;
58306;SDS011;44116;50.884;4.768;2022-07-24T09:15:49;5.2;;;3.2;;
58306;SDS011;44116;50.884;4.768;2022-07-24T09:17:49;6.1;;;3.1;;
58306;SDS011;44116;50.884;4.768;2022-07-24T09:19:50;4.3;;;2.9;;
58306;SDS011;44116;50.884;4.768;2022-07-24T09:21:48;4.9;;;3.0;;
58306;SDS011;44116;50.884;4.768;2022-07-24T09:23:48;5.0;;;2.9;;
58306;SDS011;44116;50.884;4.768;2022-07-24T09:25:50;4.9;;;3.1;;
58306;SDS011;44116;50.884;4.768;2022-07-24T09:27:50;5.6;;;2.9;;
58306;SDS011;44116;50.884;4.768;2022-07-24T09:29:48;5.6;;;2.7;;
58306;SDS011;44116;50.884;4.768;2022-07-24T09:31:49;5.4;;;2.9;;
58306;SDS011;44116;50.884;4.768;2022-07-24T09:33:49;4.8;;;2.4;;
58306;SDS011;44116;50.884;4.768;2022-07-24T09:35:50;5.1;;;2.5;;
58306;SDS011;44116;50.884;4.768;2022-07-24T09:37:53;7.3;;;2.6;;
58306;SDS011;44116;50.884;4.768;2022-07-24T09:39:49;3.5;;;2.2;;
58306;SDS011;44116;50.884;4.768;2022-07-24T09:41:50;3.0;;;2.3;;
58306;SDS011;44116;50.884;4.768;2022-07-24T09:43:57;3.2;;;2.4;;
58306;SDS011;44116;50.884;4.768;2022-07-24T09:47:52;5.7;;;2.1;;
58306;SDS011;44116;50.884;4.768;2022-07-24T09:49:49;2.9;;;2.2;;
58306;SDS011;44116;50.884;4.768;2022-07-24T09:52:06;3.6;;;1.9;;
58306;SDS011;44116;50.884;4.768;2022-07-24T09:53:54;3.0;;;2.0;;
58306;SDS011;44116;50.884;4.768;2022-07-24T09:55:58;5.9;;;2.1;;
58306;SDS011;44116;50.884;4.768;2022-07-24T09:57:50;2.5;;;1.9;;
58306;SDS011;44116;50.884;4.768;2022-07-24T09:59:52;3.9;;;2.0;;
58306;SDS011;44116;50.884;4.768;2022-07-24T10:07:52;2.8;;;2.1;;
58306;SDS011;44116;50.884;4.768;2022-07-24T10:09:52;3.6;;;1.8;;
58306;SDS011;44116;50.884;4.768;2022-07-24T10:15:52;3.8;;;2.1;;
58306;SDS011;44116;50.884;4.768;2022-07-24T10:19:52;3.0;;;2.3;;
58306;SDS011;44116;50.884;4.768;2022-07-24T10:21:54;2.5;;;1.9;;
58306;SDS011;44116;50.884;4.768;2022-07-24T10:27:54;3.7;;;1.9;;
58306;SDS011;44116;50.884;4.768;2022-07-24T10:35:53;3.7;;;2.1;;
58306;SDS011;44116;50.884;4.768;2022-07-24T10:37:58;2.8;;;1.9;;
58306;SDS011;44116;50.884;4.768;2022-07-24T10:40:03;3.0;;;1.5;;
58306;SDS011;44116;50.884;4.768;2022-07-24T10:42:01;3.1;;;2.0;;
58306;SDS011;44116;50.884;4.768;2022-07-24T10:46:10;3.0;;;1.9;;
58306;SDS011;44116;50.884;4.768;2022-07-24T10:51:58;3.1;;;1.7;;
58306;SDS011;44116;50.884;4.768;2022-07-24T10:57:56;2.4;;;1.6;;
58306;SDS011;44116;50.884;4.768;2022-07-24T11:03:54;2.3;;;1.7;;
58306;SDS011;44116;50.884;4.768;2022-07-24T11:06:03;2.8;;;1.5;;
58306;SDS011;44116;50.884;4.768;2022-07-24T11:09:58;2.3;;;1.5;;
58306;SDS011;44116;50.884;4.768;2022-07-24T11:12:04;2.0;;;1.6;;
58306;SDS011;44116;50.884;4.768;2022-07-24T11:18:12;2.4;;;1.8;;
58306;SDS011;44116;50.884;4.768;2022-07-24T11:19:56;2.4;;;1.6;;
58306;SDS011;44116;50.884;4.768;2022-07-24T11:22:06;1.8;;;1.5;;
58306;SDS011;44116;50.884;4.768;2022-07-24T11:29:59;3.4;;;1.7;;
58306;SDS011;44116;50.884;4.768;2022-07-24T11:33:57;2.3;;;1.5;;
58306;SDS011;44116;50.884;4.768;2022-07-24T11:35:57;2.9;;;1.6;;
58306;SDS011;44116;50.884;4.768;2022-07-24T11:37:58;2.3;;;1.7;;
58306;SDS011;44116;50.884;4.768;2022-07-24T11:39:57;2.5;;;1.6;;
58306;SDS011;44116;50.884;4.768;2022-07-24T11:43:58;2.5;;;1.8;;
58306;SDS011;44116;50.884;4.768;2022-07-24T11:45:58;2.6;;;1.7;;
58306;SDS011;44116;50.884;4.768;2022-07-24T11:47:58;2.2;;;1.6;;
58306;SDS011;44116;50.884;4.768;2022-07-24T11:51:58;1.8;;;1.5;;
58306;SDS011;44116;50.884;4.768;2022-07-24T11:53:59;2.2;;;1.6;;
58306;SDS011;44116;50.884;4.768;2022-07-24T11:56:02;2.2;;;1.5;;
58306;SDS011;44116;50.884;4.768;2022-07-24T11:57:59;3.0;;;1.6;;
58306;SDS011;44116;50.884;4.768;2022-07-24T11:59:59;2.7;;;1.5;;
58306;SDS011;44116;50.884;4.768;2022-07-24T12:02:03;2.3;;;1.7;;
58306;SDS011;44116;50.884;4.768;2022-07-24T12:04:00;3.8;;;1.5;;
58306;SDS011;44116;50.884;4.768;2022-07-24T12:06:00;2.5;;;1.6;;
58306;SDS011;44116;50.884;4.768;2022-07-24T12:08:03;1.7;;;1.5;;
58306;SDS011;44116;50.884;4.768;2022-07-24T12:10:01;2.6;;;1.8;;
58306;SDS011;44116;50.884;4.768;2022-07-24T12:14:01;2.5;;;1.7;;
58306;SDS011;44116;50.884;4.768;2022-07-24T12:16:01;3.2;;;2.0;;
58306;SDS011;44116;50.884;4.768;2022-07-24T12:18:03;2.3;;;1.8;;
58306;SDS011;44116;50.884;4.768;2022-07-24T12:20:03;2.8;;;1.9;;
58306;SDS011;44116;50.884;4.768;2022-07-24T12:22:02;2.8;;;1.8;;
58306;SDS011;44116;50.884;4.768;2022-07-24T12:24:03;3.2;;;1.9;;
58306;SDS011;44116;50.884;4.768;2022-07-24T12:26:02;2.9;;;1.8;;
58306;SDS011;44116;50.884;4.768;2022-07-24T12:28:04;2.5;;;1.9;;
58306;SDS011;44116;50.884;4.768;2022-07-24T12:30:04;2.8;;;2.0;;
58306;SDS011;44116;50.884;4.768;2022-07-24T12:34:03;3.3;;;2.1;;
58306;SDS011;44116;50.884;4.768;2022-07-24T12:38:03;2.9;;;2.2;;
58306;SDS011;44116;50.884;4.768;2022-07-24T12:42:04;2.4;;;2.1;;
58306;SDS011;44116;50.884;4.768;2022-07-24T12:48:05;3.9;;;2.3;;
58306;SDS011;44116;50.884;4.768;2022-07-24T12:50:12;3.1;;;2.1;;
58306;SDS011;44116;50.884;4.768;2022-07-24T12:52:05;3.5;;;2.4;;
58306;SDS011;44116;50.884;4.768;2022-07-24T12:54:05;4.4;;;2.5;;
58306;SDS011;44116;50.884;4.768;2022-07-24T12:56:08;2.7;;;2.2;;
58306;SDS011;44116;50.884;4.768;2022-07-24T12:58:06;3.6;;;2.4;;
58306;SDS011;44116;50.884;4.768;2022-07-24T13:00:07;4.1;;;2.6;;
58306;SDS011;44116;50.884;4.768;2022-07-24T13:02:08;5.6;;;2.9;;
58306;SDS011;44116;50.884;4.768;2022-07-24T13:06:07;4.8;;;3.0;;
58306;SDS011;44116;50.884;4.768;2022-07-24T13:08:07;3.3;;;2.7;;
58306;SDS011;44116;50.884;4.768;2022-07-24T13:10:08;5.5;;;2.9;;
58306;SDS011;44116;50.884;4.768;2022-07-24T13:14:10;4.3;;;2.8;;
58306;SDS011;44116;50.884;4.768;2022-07-24T13:16:08;4.5;;;2.9;;
58306;SDS011;44116;50.884;4.768;2022-07-24T13:18:08;4.9;;;3.0;;
58306;SDS011;44116;50.884;4.768;2022-07-24T13:20:09;5.9;;;3.2;;
58306;SDS011;44116;50.884;4.768;2022-07-24T13:24:11;5.0;;;3.0;;
58306;SDS011;44116;50.884;4.768;2022-07-24T13:26:09;3.7;;;2.9;;
58306;SDS011;44116;50.884;4.768;2022-07-24T13:30:13;3.9;;;2.8;;
58306;SDS011;44116;50.884;4.768;2022-07-24T13:32:10;2.6;;;2.3;;
58306;SDS011;44116;50.884;4.768;2022-07-24T13:34:10;3.1;;;2.4;;
58306;SDS011;44116;50.884;4.768;2022-07-24T13:36:11;4.6;;;2.5;;
58306;SDS011;44116;50.884;4.768;2022-07-24T13:38:11;5.1;;;2.8;;
58306;SDS011;44116;50.884;4.768;2022-07-24T13:40:11;5.8;;;2.6;;
58306;SDS011;44116;50.884;4.768;2022-07-24T13:42:11;3.4;;;2.5;;
58306;SDS011;44116;50.884;4.768;2022-07-24T13:44:11;4.2;;;2.6;;
58306;SDS011;44116;50.884;4.768;2022-07-24T13:46:12;3.7;;;3.0;;
58306;SDS011;44116;50.884;4.768;2022-07-24T13:48:12;3.8;;;2.6;;
58306;SDS011;44116;50.884;4.768;2022-07-24T13:52:13;3.2;;;2.9;;
58306;SDS011;44116;50.884;4.768;2022-07-24T13:54:13;4.5;;;2.7;;
58306;SDS011;44116;50.884;4.768;2022-07-24T13:56:14;3.5;;;2.6;;
58306;SDS011;44116;50.884;4.768;2022-07-24T14:02:14;3.7;;;2.7;;